Mayo, Canada
Current Conditions -  °F | °C
As of 11:00 PM on Sunday 21 Dec 2014 (Local Time) from CYMA Reporting Station
Overcast Overcast  
Wind Chill: 16°   Ceiling: 4000
Heat Index: 16°   Visibility: 20mi
Dew Point: 12°   Wind: 0mph
Humidity: 86%   Direction: NA
Pressure: 29.51"   Gusts: NA
Location:  63.6°N, 135.88°W
Report Text: CYMA 220700Z 00000KT 20SM OVC040 M09/M11 A2951 RMK SC8 SLP033
Loading
Personal Weather Stations






























Interactive Weather Map New forecast layout! Learn more

10-Day Weather Forecast

Advertisements
Track Severe Weather on mobile